Saltillo, MS (38866)

10:34 AM CDT on May 25, 2015 (GMT -0500)
RAWS | | Change Station
CLOSE
Current Station
Personal Weather Station
Location: Saltillo, MS
Elevation: 319 ft
Nearby Weather Stations

Elev 319 ft 34.33 °N, 88.71 °W | Updated 22 minutes ago

Rain
Rain
68 °F
Feels Like 68 °F
N
0
Wind Variable Wind from North
Gusts 3.0 mph

Today
High -- | Low -- °F
--% Chance of Precip.
Yesterday
High -- | Low -- °F
Precip. -- in
5:46 AM 7:57 PM
Waxing Crescent, 49% visible
Pressure 30.12 in
Visibility 4.0 miles
Clouds Scattered Clouds 1800 ft
Mostly Cloudy 3000 ft
Overcast 3700 ft
Dew Point 68 °F
Humidity 100%
Rainfall in
Snow Depth Not available.
UV 2 out of 12
Pollen .70 out of 12
Air Quality Not available.
Flu Activity No Activity
SPECI KTUP 251456Z 32003KT 4SM -RA BR SCT018 BKN030 OVC037 20/19 A3012 RMK AO2 P0000 T02000189

More Conditions Fewer Conditions

Pressure 30.12 in
Visibility 4.0 miles
Clouds Scattered Clouds 1800 ft
Mostly Cloudy 3000 ft
Overcast 3700 ft
Dew Point 68 °F
Humidity 100%
Rainfall in
Snow Depth Not available.
UV 2 out of 12
Pollen .70 out of 12
Air Quality Not available.
Flu Activity No Activity
SPECI KTUP 251456Z 32003KT 4SM -RA BR SCT018 BKN030 OVC037 20/19 A3012 RMK AO2 P0000 T02000189

More Conditions Fewer Conditions

10-Day Weather Forecast

Almanac

Astronomy

May. 25, 2015 Rise Set
Actual Time
Civil Twilight
Nautical Twilight
Astronomical Twilight
Moon
Length of Visible Light
Length of Day
Tomorrow will be .
, % of the Moon is Illuminated

Today's Extremes

State Highs State Lows

Community

WunderPhotos

Upload Photos

1,824,030 photos uploaded!

WunderBlogs® & News

Nearby

Air Quality

  Air Quality AQ Index Pollutant
Not available.

Snow Depth

Station Depth Elevation

Earthquake Activity

City Distance Mag. Time & Date
Minimum magnitude displayed is 2.5.

Coastal Water Temperatures

Place Temperature

Stations

Nearby Weather Stations

Station Location Temp. Windchill Dew Point Humidity Wind Precip. Elev Updated Type